Time;durP1;ratioP1;P1;durP2;ratioP2;P2;SDS_P1;SDS_P2;PMS_P1;PMS_P2;Temp;Humidity;BMP_temperature;BMP_pressure;BME280_temperature;BME280_humidity;BME280_pressure;Samples;Min_cycle;Max_cycle;Signal;HPM_P1;HPM_P2
2021/12/13 00:00:25;;;;;;;15.65;11.38;;;4.40;99.90;;;;;;2097355;28;20444;-73
2021/12/13 00:01:37;;;;;;;17.73;12.10;;;4.40;99.90;;;;;;2096964;28;20521;-71
2021/12/13 00:03:05;;;;;;;16.15;11.20;;;4.40;99.90;;;;;;2097120;28;20120;-72
2021/12/13 00:04:16;;;;;;;14.43;10.68;;;4.40;99.90;;;;;;2096938;28;20035;-72
2021/12/13 00:05:33;;;;;;;14.80;10.48;;;4.40;99.90;;;;;;2096951;28;20121;-71
2021/12/13 00:06:39;;;;;;;14.00;10.35;;;4.40;99.90;;;;;;2096773;28;20365;-72
2021/12/13 00:07:43;;;;;;;14.35;10.05;;;4.40;99.90;;;;;;2096772;28;20013;-72
2021/12/13 00:08:50;;;;;;;15.38;10.38;;;4.50;99.90;;;;;;2096926;28;20035;-72
2021/12/13 00:09:55;;;;;;;14.88;10.77;;;4.40;99.90;;;;;;2096638;28;20047;-72
2021/12/13 00:11:01;;;;;;;15.43;10.90;;;4.50;99.90;;;;;;2088728;28;20029;-70
2021/12/13 00:12:03;;;;;;;13.38;9.88;;;4.50;99.90;;;;;;2076687;28;20034;-72
2021/12/13 00:13:10;;;;;;;12.57;9.75;;;4.50;99.90;;;;;;2088450;28;20024;-71
2021/12/13 00:14:11;;;;;;;12.82;9.27;;;4.50;99.90;;;;;;2096552;28;20747;-72
2021/12/13 00:15:23;;;;;;;12.23;9.10;;;4.50;99.90;;;;;;2096791;28;20027;-72
2021/12/13 00:16:31;;;;;;;13.50;9.45;;;4.50;99.90;;;;;;2097292;28;20511;-72
2021/12/13 00:17:50;;;;;;;12.35;9.07;;;4.50;99.90;;;;;;2097325;28;20043;-71
2021/12/13 00:18:56;;;;;;;13.35;9.77;;;4.50;99.90;;;;;;2096842;28;20028;-72
2021/12/13 00:20:09;;;;;;;12.18;8.90;;;4.50;99.90;;;;;;2096943;28;20024;-72
2021/12/13 00:21:15;;;;;;;12.00;9.15;;;4.50;99.90;;;;;;2096739;28;20062;-72
2021/12/13 00:22:24;;;;;;;11.70;8.63;;;4.50;99.90;;;;;;2097390;28;20088;-73
2021/12/13 00:23:33;;;;;;;11.10;8.30;;;4.50;99.90;;;;;;2099114;28;20028;-73
2021/12/13 00:24:39;;;;;;;12.05;8.73;;;4.50;99.90;;;;;;2099022;28;20039;-73
2021/12/13 00:25:42;;;;;;;12.48;9.00;;;4.60;99.90;;;;;;2096828;28;20029;-74
2021/12/13 00:26:48;;;;;;;12.13;8.90;;;4.60;99.90;;;;;;2096723;28;20016;-73
2021/12/13 00:27:54;;;;;;;11.90;8.93;;;4.60;99.90;;;;;;2095631;28;20035;-72
2021/12/13 00:28:56;;;;;;;11.13;8.38;;;4.60;99.90;;;;;;2096388;28;20039;-73
2021/12/13 00:30:20;;;;;;;11.00;8.43;;;4.60;99.90;;;;;;2096760;28;20498;-72
2021/12/13 00:31:24;;;;;;;10.90;8.32;;;4.60;99.90;;;;;;2096747;28;20073;-73
2021/12/13 00:33:02;;;;;;;10.57;7.95;;;4.60;99.90;;;;;;2096783;28;20037;-73
2021/12/13 00:34:19;;;;;;;9.70;7.50;;;4.60;99.90;;;;;;2095789;28;20029;-72
2021/12/13 00:35:24;;;;;;;9.40;7.20;;;4.60;99.90;;;;;;2096266;28;20056;-72
2021/12/13 00:36:42;;;;;;;8.82;7.13;;;4.60;99.90;;;;;;2097011;28;20102;-72
2021/12/13 00:37:51;;;;;;;8.80;6.72;;;4.60;99.90;;;;;;2095920;28;20127;-72
2021/12/13 00:39:08;;;;;;;9.13;6.93;;;4.70;99.90;;;;;;2096355;28;20046;-72
2021/12/13 00:40:18;;;;;;;8.93;7.07;;;4.70;99.90;;;;;;2096731;28;20081;-71
2021/12/13 00:41:24;;;;;;;9.80;7.20;;;4.70;99.90;;;;;;2096294;28;20068;-72
2021/12/13 00:42:32;;;;;;;8.40;7.10;;;4.70;99.90;;;;;;2096682;28;20055;-72
2021/12/13 00:43:37;;;;;;;9.05;7.18;;;4.70;99.90;;;;;;2097089;28;20024;-72
2021/12/13 00:44:45;;;;;;;10.02;7.38;;;4.70;99.90;;;;;;2096087;28;20037;-72
2021/12/13 00:46:00;;;;;;;10.18;7.57;;;4.70;99.90;;;;;;2096366;28;20515;-73
2021/12/13 00:47:04;;;;;;;8.80;6.70;;;4.70;99.90;;;;;;2096837;28;20024;-72
2021/12/13 00:48:07;;;;;;;8.88;6.75;;;4.70;99.90;;;;;;2096232;28;20043;-71
2021/12/13 00:49:11;;;;;;;8.68;7.18;;;4.70;99.90;;;;;;2096734;28;20031;-72
2021/12/13 00:50:54;;;;;;;8.38;7.00;;;4.70;99.90;;;;;;2096931;28;20024;-71
2021/12/13 00:51:58;;;;;;;7.97;6.22;;;4.70;99.90;;;;;;2078965;28;20030;-72
2021/12/13 00:52:59;;;;;;;6.88;5.88;;;4.70;99.90;;;;;;2096186;28;20043;-71
2021/12/13 00:54:09;;;;;;;6.97;6.00;;;4.70;99.90;;;;;;2097363;28;20036;-72
2021/12/13 00:55:37;;;;;;;6.88;6.00;;;4.80;99.90;;;;;;2088432;28;20033;-71
2021/12/13 00:56:57;;;;;;;6.72;5.68;;;4.80;99.90;;;;;;2087023;28;20148;-71
2021/12/13 00:58:06;;;;;;;;;;;4.80;99.90;;;;;;2097031;28;20034;-71
2021/12/13 00:59:09;;;;;;;7.43;5.40;;;4.80;99.90;;;;;;2104801;28;19912;-72
2021/12/13 01:00:22;;;;;;;8.40;6.85;;;4.80;99.90;;;;;;2104591;28;20593;-71
2021/12/13 01:01:23;;;;;;;7.10;6.20;;;4.80;99.90;;;;;;2096968;28;20040;-71
2021/12/13 01:02:28;;;;;;;6.80;6.07;;;4.80;99.90;;;;;;2096395;28;20036;-71
2021/12/13 01:03:37;;;;;;;6.20;5.10;;;4.80;99.90;;;;;;2096862;28;20062;-71
2021/12/13 01:04:59;;;;;;;7.13;5.60;;;4.80;99.90;;;;;;2096702;28;20423;-71
2021/12/13 01:06:19;;;;;;;5.90;5.25;;;4.80;99.90;;;;;;2096676;28;20036;-71
2021/12/13 01:07:44;;;;;;;5.70;5.10;;;4.80;99.90;;;;;;2096829;28;20031;-71
2021/12/13 01:09:41;;;;;;;5.75;5.10;;;4.80;99.90;;;;;;2096344;28;20024;-71
2021/12/13 01:11:01;;;;;;;6.13;4.88;;;4.80;99.90;;;;;;2096371;28;20032;-71
2021/12/13 01:12:08;;;;;;;5.05;4.55;;;4.80;99.90;;;;;;2096421;28;20024;-71
2021/12/13 01:13:25;;;;;;;5.55;4.85;;;4.80;99.90;;;;;;2097097;28;20081;-71
2021/12/13 01:14:31;;;;;;;5.60;4.80;;;4.80;99.90;;;;;;2097060;28;20108;-71
2021/12/13 01:15:42;;;;;;;5.90;5.30;;;4.80;99.90;;;;;;2096911;28;20116;-71
2021/12/13 01:16:59;;;;;;;5.45;4.95;;;4.80;99.90;;;;;;2096611;28;20024;-71
2021/12/13 01:18:24;;;;;;;6.20;5.15;;;4.80;99.90;;;;;;2091064;28;20054;-71
2021/12/13 01:19:59;;;;;;;6.47;5.28;;;4.80;99.90;;;;;;2096728;28;20111;-72
2021/12/13 01:21:12;;;;;;;7.32;5.80;;;4.80;99.90;;;;;;2095545;28;20750;-71
2021/12/13 01:22:29;;;;;;;6.00;5.05;;;4.80;99.90;;;;;;2096192;28;20103;-72
2021/12/13 01:23:44;;;;;;;6.38;5.38;;;4.80;99.90;;;;;;2096854;28;20472;-73
2021/12/13 01:25:14;;;;;;;6.07;5.07;;;4.80;99.90;;;;;;2095858;28;20025;-72
2021/12/13 01:27:40;;;;;;;5.53;4.93;;;4.80;99.90;;;;;;2089351;28;20083;-72
2021/12/13 01:28:44;;;;;;;5.68;5.00;;;4.80;99.90;;;;;;2096054;28;20020;-72
2021/12/13 01:29:51;;;;;;;6.65;5.60;;;4.80;99.90;;;;;;2096781;28;20551;-73
2021/12/13 01:31:03;;;;;;;6.57;5.05;;;4.90;99.90;;;;;;2096051;28;20457;-72
2021/12/13 01:32:09;;;;;;;5.75;5.15;;;4.90;99.90;;;;;;2095631;28;20132;-71
2021/12/13 01:33:13;;;;;;;5.85;4.93;;;4.90;99.90;;;;;;2096549;28;20028;-71
2021/12/13 01:34:17;;;;;;;5.32;4.82;;;4.80;99.90;;;;;;2096218;28;20398;-71
2021/12/13 01:35:25;;;;;;;5.85;5.13;;;4.80;99.90;;;;;;2096584;28;20150;-71
2021/12/13 01:36:36;;;;;;;7.05;6.05;;;4.90;99.90;;;;;;2096727;28;20043;-72
2021/12/13 01:37:37;;;;;;;6.82;5.70;;;4.90;99.90;;;;;;2096394;28;20032;-71
2021/12/13 01:38:52;;;;;;;8.15;5.97;;;4.90;99.90;;;;;;2099018;28;20031;-72
2021/12/13 01:39:54;;;;;;;5.97;5.38;;;4.90;99.90;;;;;;2100309;28;20036;-72
2021/12/13 01:40:55;;;;;;;6.03;5.43;;;4.90;99.90;;;;;;2099942;28;20036;-72
2021/12/13 01:42:00;;;;;;;6.38;5.50;;;4.90;99.90;;;;;;2100136;28;20048;-72
2021/12/13 01:43:24;;;;;;;6.25;5.38;;;4.90;99.90;;;;;;2097143;28;20115;-72
2021/12/13 01:44:30;;;;;;;6.40;5.45;;;4.90;99.90;;;;;;2097711;28;20032;-71
2021/12/13 01:45:34;;;;;;;6.47;5.30;;;4.90;99.90;;;;;;2098320;28;20025;-72
2021/12/13 01:46:44;;;;;;;5.80;5.20;;;4.90;99.90;;;;;;2098245;28;20070;-71
2021/12/13 01:47:46;;;;;;;5.80;5.20;;;4.90;99.90;;;;;;2097159;28;20506;-72
2021/12/13 01:48:47;;;;;;;5.47;4.97;;;4.90;99.90;;;;;;2097555;28;20059;-72
2021/12/13 01:49:58;;;;;;;5.53;5.03;;;4.90;99.90;;;;;;2097449;28;20021;-73
2021/12/13 01:51:05;;;;;;;6.07;5.47;;;4.90;99.90;;;;;;2097832;28;20506;-71
2021/12/13 01:52:20;;;;;;;5.97;5.32;;;4.90;99.90;;;;;;2096251;28;20404;-72
2021/12/13 01:53:41;;;;;;;6.93;5.72;;;4.90;99.90;;;;;;2096848;28;20027;-73
2021/12/13 01:54:43;;;;;;;5.95;5.35;;;4.90;99.90;;;;;;2097414;28;20025;-73
2021/12/13 01:55:46;;;;;;;6.55;5.45;;;4.90;99.90;;;;;;2096862;28;20062;-72
2021/12/13 01:57:09;;;;;;;6.80;5.68;;;4.90;99.90;;;;;;2096830;28;20440;-72
2021/12/13 01:58:41;;;;;;;6.22;5.57;;;4.90;99.90;;;;;;2097081;28;20381;-73
2021/12/13 01:59:48;;;;;;;7.55;5.57;;;4.90;99.90;;;;;;2096896;28;20074;-73
2021/12/13 02:01:10;;;;;;;6.18;5.28;;;4.90;99.90;;;;;;2097254;28;20087;-73
2021/12/13 02:02:42;;;;;;;6.18;5.43;;;4.90;99.90;;;;;;2097557;28;20039;-73
2021/12/13 02:04:04;;;;;;;7.28;5.20;;;4.90;99.90;;;;;;2098230;28;20457;-73
2021/12/13 02:05:13;;;;;;;6.97;5.68;;;4.90;99.90;;;;;;2097889;28;20106;-72
2021/12/13 02:06:28;;;;;;;6.85;5.55;;;4.90;99.90;;;;;;2097660;28;20013;-73
2021/12/13 02:07:49;;;;;;;6.38;5.72;;;4.90;99.90;;;;;;2097607;28;20032;-72
2021/12/13 02:08:53;;;;;;;6.18;5.57;;;4.90;99.90;;;;;;2097786;28;20021;-72
2021/12/13 02:09:56;;;;;;;6.05;5.45;;;4.90;99.90;;;;;;2098038;28;20025;-72
2021/12/13 02:10:57;;;;;;;5.90;5.35;;;4.90;99.90;;;;;;2098242;28;20565;-72
2021/12/13 02:12:01;;;;;;;7.72;6.20;;;4.90;99.90;;;;;;2097597;28;20043;-72
2021/12/13 02:13:16;;;;;;;6.88;6.05;;;4.90;99.90;;;;;;2098200;28;20028;-73
2021/12/13 02:14:24;;;;;;;8.00;6.60;;;4.90;99.90;;;;;;2098140;28;20086;-73
2021/12/13 02:17:10;;;;;;;8.05;6.10;;;5.00;99.90;;;;;;2097422;28;20021;-73
2021/12/13 02:18:14;;;;;;;8.25;6.78;;;5.00;99.90;;;;;;2097307;28;20081;-72
2021/12/13 02:19:21;;;;;;;7.88;6.60;;;5.00;99.90;;;;;;2097274;28;20125;-72
2021/12/13 02:20:31;;;;;;;8.07;6.72;;;5.00;99.90;;;;;;2097613;28;20360;-73
2021/12/13 02:21:35;;;;;;;7.53;6.40;;;5.00;99.90;;;;;;2097709;28;20039;-73
2021/12/13 02:22:37;;;;;;;8.85;6.85;;;5.00;99.90;;;;;;2097745;28;20040;-71
2021/12/13 02:23:42;;;;;;;8.32;6.90;;;5.00;99.90;;;;;;2098025;28;20434;-72
2021/12/13 02:24:43;;;;;;;7.15;6.43;;;5.00;99.90;;;;;;2098161;28;20040;-73
2021/12/13 02:25:51;;;;;;;7.15;6.20;;;5.00;99.90;;;;;;2098283;28;20120;-73
2021/12/13 02:26:57;;;;;;;8.13;6.63;;;5.00;99.90;;;;;;2097854;28;20039;-73
2021/12/13 02:28:04;;;;;;;7.90;6.57;;;5.00;99.90;;;;;;2089612;28;20119;-73
2021/12/13 02:29:19;;;;;;;6.57;5.88;;;5.00;99.90;;;;;;2098133;28;20467;-73
2021/12/13 02:30:29;;;;;;;6.70;5.60;;;5.00;99.90;;;;;;2097093;28;20032;-73
2021/12/13 02:31:34;;;;;;;6.68;5.53;;;5.00;99.90;;;;;;2097113;28;20036;-73
2021/12/13 02:32:35;;;;;;;6.18;5.57;;;5.00;99.90;;;;;;2097903;28;20040;-74
2021/12/13 02:33:43;;;;;;;6.80;5.80;;;5.00;99.90;;;;;;2097496;28;20800;-73
2021/12/13 02:34:44;;;;;;;6.78;5.75;;;5.00;99.90;;;;;;2097874;28;20028;-73
2021/12/13 02:35:52;;;;;;;6.03;5.43;;;5.00;99.90;;;;;;2098095;28;20111;-73
2021/12/13 02:36:54;;;;;;;6.13;5.53;;;5.00;99.90;;;;;;2097869;28;20020;-73
2021/12/13 02:37:57;;;;;;;6.13;5.55;;;5.00;99.90;;;;;;2097457;28;20035;-73
2021/12/13 02:39:01;;;;;;;6.43;5.80;;;5.00;99.90;;;;;;2097993;28;20416;-73
2021/12/13 02:40:04;;;;;;;6.53;5.85;;;5.00;99.90;;;;;;2097860;28;20025;-73
2021/12/13 02:41:06;;;;;;;6.32;5.72;;;5.00;99.90;;;;;;2097824;28;20395;-73
2021/12/13 02:42:10;;;;;;;6.63;5.93;;;5.00;99.90;;;;;;2097782;28;20028;-73
2021/12/13 02:43:13;;;;;;;6.85;5.95;;;5.00;99.90;;;;;;2097951;28;20052;-74
2021/12/13 02:44:28;;;;;;;6.72;5.88;;;5.00;99.90;;;;;;2097569;28;20054;-73
2021/12/13 02:45:42;;;;;;;6.30;5.63;;;5.00;99.90;;;;;;2096674;28;20171;-73
2021/12/13 02:46:44;;;;;;;6.82;6.03;;;5.00;99.90;;;;;;2097280;28;20055;-73
2021/12/13 02:47:53;;;;;;;6.57;5.88;;;5.00;99.90;;;;;;2097356;28;20136;-73
2021/12/13 02:49:02;;;;;;;6.32;5.63;;;5.00;99.90;;;;;;2097669;28;20017;-73
2021/12/13 02:50:09;;;;;;;6.97;6.00;;;5.00;99.90;;;;;;2097870;28;20016;-73
2021/12/13 02:51:12;;;;;;;6.57;5.88;;;5.00;99.90;;;;;;2097879;28;20039;-73
2021/12/13 02:52:16;;;;;;;6.18;5.57;;;5.00;99.90;;;;;;2097225;28;20102;-73
2021/12/13 02:53:37;;;;;;;6.47;5.60;;;5.00;99.90;;;;;;2096818;28;20032;-73
2021/12/13 02:54:46;;;;;;;6.47;5.78;;;5.00;99.90;;;;;;2097095;28;20111;-73
2021/12/13 02:55:47;;;;;;;6.05;5.45;;;5.00;99.90;;;;;;2097670;28;20093;-73
2021/12/13 02:56:51;;;;;;;6.82;6.13;;;5.00;99.90;;;;;;2097785;28;20025;-73
2021/12/13 02:57:53;;;;;;;6.53;5.80;;;5.00;99.90;;;;;;2097219;28;20056;-75
2021/12/13 02:58:56;;;;;;;6.80;6.10;;;5.00;99.90;;;;;;2097532;28;20044;-75
2021/12/13 03:00:14;;;;;;;6.65;5.95;;;5.00;99.90;;;;;;2096830;28;20512;-73
2021/12/13 03:01:22;;;;;;;7.28;5.82;;;5.00;99.90;;;;;;2096914;28;20125;-73
2021/12/13 03:02:29;;;;;;;6.18;5.57;;;5.00;99.90;;;;;;2097639;28;20032;-74
2021/12/13 03:03:35;;;;;;;6.10;5.50;;;5.00;99.90;;;;;;2096972;28;20123;-74
2021/12/13 03:04:35;;;;;;;6.85;6.13;;;5.00;99.90;;;;;;2097121;28;20012;-74
2021/12/13 03:05:41;;;;;;;6.85;6.15;;;5.00;99.90;;;;;;2097805;28;20675;-73
2021/12/13 03:06:50;;;;;;;6.03;5.43;;;5.00;99.90;;;;;;2097248;28;20020;-74
2021/12/13 03:07:54;;;;;;;6.53;5.80;;;5.00;99.90;;;;;;2097078;28;20078;-73
2021/12/13 03:09:06;;;;;;;6.75;5.97;;;5.00;99.90;;;;;;2097530;28;20115;-73
2021/12/13 03:10:15;;;;;;;6.85;5.40;;;5.00;99.90;;;;;;2096958;28;20086;-74
2021/12/13 03:11:24;;;;;;;6.60;5.90;;;5.00;99.90;;;;;;2097250;28;20129;-74
2021/12/13 03:12:27;;;;;;;7.00;6.30;;;5.00;99.90;;;;;;2097308;28;20021;-74
2021/12/13 03:13:31;;;;;;;7.65;6.68;;;5.00;99.90;;;;;;2097498;28;20028;-72
2021/12/13 03:14:40;;;;;;;8.45;6.63;;;5.00;99.90;;;;;;2096468;28;20035;-72
2021/12/13 03:15:47;;;;;;;7.30;6.28;;;5.00;99.90;;;;;;2089602;28;20099;-71
2021/12/13 03:17:00;;;;;;;8.10;6.30;;;5.00;99.90;;;;;;2097358;28;20033;-72
2021/12/13 03:18:10;;;;;;;8.10;6.75;;;5.00;99.90;;;;;;2097162;28;20073;-73
2021/12/13 03:19:39;;;;;;;8.60;7.18;;;5.00;99.90;;;;;;2097159;28;20719;-73
2021/12/13 03:21:02;;;;;;;10.57;8.35;;;5.00;99.90;;;;;;2097378;28;20547;-75
2021/12/13 03:22:36;;;;;;;10.15;7.65;;;5.00;99.90;;;;;;2096976;28;20032;-73
2021/12/13 03:24:01;;;;;;;9.57;7.30;;;5.00;99.90;;;;;;2098196;28;20524;-73
2021/12/13 03:25:16;;;;;;;8.63;6.72;;;5.00;99.90;;;;;;2097576;28;20111;-73
2021/12/13 03:26:55;;;;;;;9.05;6.88;;;5.00;99.90;;;;;;2089681;28;20033;-72
2021/12/13 03:28:01;;;;;;;8.68;7.15;;;5.00;99.90;;;;;;2090967;28;20059;-71
2021/12/13 03:29:40;;;;;;;8.55;6.88;;;5.00;99.90;;;;;;2096242;28;20021;-72
2021/12/13 03:30:50;;;;;;;8.85;7.00;;;5.00;99.90;;;;;;2098671;28;20039;-73
2021/12/13 03:31:54;;;;;;;9.65;7.43;;;5.00;99.90;;;;;;2098772;28;20029;-75
2021/12/13 03:32:59;;;;;;;8.60;7.20;;;5.00;99.90;;;;;;2098721;28;20035;-74
2021/12/13 03:34:10;;;;;;;9.90;8.23;;;5.00;99.90;;;;;;2098672;28;20041;-75
2021/12/13 03:35:19;;;;;;;11.68;8.70;;;5.00;99.90;;;;;;2098608;28;20035;-75
2021/12/13 03:36:35;;;;;;;11.48;8.57;;;5.00;99.90;;;;;;2098372;28;20048;-72
2021/12/13 03:37:36;;;;;;;12.65;9.75;;;5.00;99.90;;;;;;2092842;28;20036;-73
2021/12/13 03:38:42;;;;;;;11.63;8.98;;;5.00;99.90;;;;;;2099080;28;20031;-73
2021/12/13 03:39:47;;;;;;;13.60;9.85;;;5.00;99.90;;;;;;2099148;28;20056;-73
2021/12/13 03:40:48;;;;;;;12.88;9.25;;;5.00;99.90;;;;;;2097727;28;20032;-72
2021/12/13 03:41:52;;;;;;;13.63;9.82;;;4.90;99.90;;;;;;2096919;28;20052;-72
2021/12/13 03:42:57;;;;;;;15.65;11.02;;;4.90;99.90;;;;;;2096955;28;20130;-72
2021/12/13 03:44:06;;;;;;;14.55;10.55;;;4.90;99.90;;;;;;2090993;28;20048;-73
2021/12/13 03:45:19;;;;;;;15.00;10.90;;;4.90;99.90;;;;;;2097705;28;20138;-73
2021/12/13 03:46:24;;;;;;;16.98;11.95;;;4.90;99.90;;;;;;2098274;28;20456;-72
2021/12/13 03:47:36;;;;;;;17.17;12.30;;;4.90;99.90;;;;;;2097728;28;20679;-73
2021/12/13 03:48:38;;;;;;;18.30;12.60;;;4.90;99.90;;;;;;2097841;28;20032;-73
2021/12/13 03:49:45;;;;;;;21.27;14.05;;;4.90;99.90;;;;;;2097621;28;20052;-72
2021/12/13 03:50:51;;;;;;;23.40;14.65;;;4.90;99.90;;;;;;2097643;28;20020;-73
2021/12/13 03:51:56;;;;;;;26.25;16.42;;;4.90;99.90;;;;;;2096780;28;20035;-73
2021/12/13 03:53:00;;;;;;;27.45;16.50;;;4.80;99.90;;;;;;2097110;28;20626;-72
2021/12/13 03:54:05;;;;;;;34.47;19.15;;;4.80;99.90;;;;;;2097665;28;20056;-74
2021/12/13 03:55:06;;;;;;;31.65;17.95;;;4.80;99.90;;;;;;2097673;28;20029;-73
2021/12/13 03:56:14;;;;;;;32.10;18.23;;;4.80;99.90;;;;;;2096935;28;20151;-74
2021/12/13 03:57:17;;;;;;;31.08;18.77;;;4.80;99.90;;;;;;2096797;28;20058;-74
2021/12/13 03:58:20;;;;;;;35.58;20.23;;;4.80;99.90;;;;;;2096666;28;20041;-73
2021/12/13 03:59:27;;;;;;;34.38;19.63;;;4.80;99.90;;;;;;2096879;28;20487;-73
2021/12/13 04:00:32;;;;;;;37.75;20.20;;;4.80;99.90;;;;;;2096923;28;20459;-74
2021/12/13 04:01:43;;;;;;;43.75;23.85;;;4.80;99.90;;;;;;2096282;28;20032;-71
2021/12/13 04:02:46;;;;;;;42.75;23.25;;;4.80;99.90;;;;;;2097536;28;20541;-74
2021/12/13 04:03:49;;;;;;;41.20;23.95;;;4.80;99.90;;;;;;2097668;28;20496;-73
2021/12/13 04:04:58;;;;;;;44.30;24.75;;;4.80;99.90;;;;;;2097355;28;20073;-73
2021/12/13 04:05:59;;;;;;;43.78;24.00;;;4.80;99.90;;;;;;2090853;28;20037;-73
2021/12/13 04:07:34;;;;;;;40.38;23.10;;;4.70;99.90;;;;;;2096874;28;20029;-73
2021/12/13 04:08:35;;;;;;;41.25;22.70;;;4.70;99.90;;;;;;2096313;28;20032;-73
2021/12/13 04:09:36;;;;;;;38.80;22.98;;;4.70;99.90;;;;;;2096923;28;20479;-73
2021/12/13 04:10:53;;;;;;;39.40;21.60;;;4.70;99.90;;;;;;2097598;28;20024;-72
2021/12/13 04:11:56;;;;;;;37.25;21.17;;;4.70;99.90;;;;;;2097051;28;20032;-73
2021/12/13 04:13:00;;;;;;;34.30;21.52;;;4.70;99.90;;;;;;2097032;28;20390;-72
2021/12/13 04:14:15;;;;;;;36.95;21.70;;;4.70;99.90;;;;;;2098841;28;20385;-73
2021/12/13 04:15:21;;;;;;;35.53;21.40;;;4.70;99.90;;;;;;2100617;28;20070;-73
2021/12/13 04:16:35;;;;;;;37.80;21.48;;;4.70;99.90;;;;;;2100657;28;20092;-73
2021/12/13 04:17:44;;;;;;;35.47;20.42;;;4.70;99.90;;;;;;2098669;28;20027;-72
2021/12/13 04:19:57;;;;;;;33.63;19.92;;;4.70;99.90;;;;;;2096281;28;20043;-73
2021/12/13 04:21:05;;;;;;;35.40;21.25;;;4.70;99.90;;;;;;2096570;28;20040;-73
2021/12/13 04:22:09;;;;;;;33.75;19.77;;;4.70;99.90;;;;;;2096344;28;20115;-74
2021/12/13 04:23:18;;;;;;;34.70;21.20;;;4.70;99.90;;;;;;2096580;28;20422;-73
2021/12/13 04:24:31;;;;;;;33.95;19.98;;;4.70;99.90;;;;;;2097020;28;20040;-74
2021/12/13 04:25:39;;;;;;;33.42;20.88;;;4.70;99.90;;;;;;2096790;28;20028;-73
2021/12/13 04:26:45;;;;;;;34.88;20.50;;;4.70;99.90;;;;;;2096536;28;20016;-72
2021/12/13 04:27:57;;;;;;;35.13;21.52;;;4.70;99.90;;;;;;2096060;28;20032;-72
2021/12/13 04:29:00;;;;;;;37.10;21.63;;;4.70;99.90;;;;;;2097099;28;20040;-72
2021/12/13 04:30:16;;;;;;;37.83;22.67;;;4.70;99.90;;;;;;2097551;28;20391;-73
2021/12/13 04:31:21;;;;;;;35.53;20.70;;;4.70;99.90;;;;;;2097081;28;20823;-73
2021/12/13 04:32:52;;;;;;;33.80;20.88;;;4.60;99.90;;;;;;2097659;28;20047;-72
2021/12/13 04:33:57;;;;;;;32.33;19.73;;;4.70;99.90;;;;;;2097096;28;20044;-73
2021/12/13 04:35:03;;;;;;;33.75;19.67;;;4.70;99.90;;;;;;2096652;28;20503;-72
2021/12/13 04:36:26;;;;;;;32.28;19.80;;;4.70;99.90;;;;;;2088564;28;20052;-73
2021/12/13 04:37:32;;;;;;;30.65;18.60;;;4.60;99.90;;;;;;2091362;28;20044;-73
2021/12/13 04:38:49;;;;;;;30.58;19.40;;;4.60;99.90;;;;;;2096320;28;20419;-72
2021/12/13 04:40:00;;;;;;;30.30;18.73;;;4.60;99.90;;;;;;2090780;28;20199;-73
2021/12/13 04:41:01;;;;;;;31.15;19.70;;;4.70;99.90;;;;;;2096488;28;20086;-73
2021/12/13 04:42:15;;;;;;;31.85;19.25;;;4.70;99.90;;;;;;2096837;28;20032;-73
2021/12/13 04:43:17;;;;;;;30.02;18.38;;;4.70;99.90;;;;;;2097134;28;20582;-73
2021/12/13 04:44:50;;;;;;;32.75;20.05;;;4.70;99.90;;;;;;2097127;28;20411;-73
2021/12/13 04:45:57;;;;;;;29.60;18.92;;;4.70;99.90;;;;;;2097348;28;20036;-73
2021/12/13 04:47:13;;;;;;;32.15;20.27;;;4.60;99.90;;;;;;2097271;28;20066;-73
2021/12/13 04:48:16;;;;;;;28.90;18.45;;;4.60;99.90;;;;;;2096484;28;20154;-73
2021/12/13 04:49:21;;;;;;;30.25;19.45;;;4.60;99.90;;;;;;2097272;28;20039;-73
2021/12/13 04:50:51;;;;;;;29.42;18.77;;;4.60;99.90;;;;;;2096764;28;20028;-73
2021/12/13 04:51:54;;;;;;;30.00;19.00;;;4.70;99.90;;;;;;2096593;28;20055;-73
2021/12/13 04:52:57;;;;;;;31.85;19.23;;;4.60;99.90;;;;;;2097398;28;20037;-73
2021/12/13 04:54:02;;;;;;;31.17;19.95;;;4.60;99.90;;;;;;2096607;28;20044;-72
2021/12/13 04:55:08;;;;;;;32.55;21.02;;;4.60;99.90;;;;;;2095831;28;20496;-72
2021/12/13 04:56:13;;;;;;;30.05;19.70;;;4.70;99.90;;;;;;2096965;28;20515;-72
2021/12/13 04:57:15;;;;;;;32.85;20.63;;;4.70;99.90;;;;;;2096401;28;20041;-72
2021/12/13 04:58:18;;;;;;;33.38;21.30;;;4.70;99.90;;;;;;2087671;28;20025;-72
2021/12/13 04:59:20;;;;;;;32.75;20.80;;;4.60;99.90;;;;;;2088553;28;20025;-72
2021/12/13 05:00:23;;;;;;;30.05;19.75;;;4.60;99.90;;;;;;2096488;28;20036;-73
2021/12/13 05:01:24;;;;;;;31.33;20.13;;;4.60;99.90;;;;;;2096382;28;20059;-73
2021/12/13 05:02:26;;;;;;;32.55;20.45;;;4.60;99.90;;;;;;2097155;28;20464;-73
2021/12/13 05:03:34;;;;;;;32.85;20.80;;;4.60;99.90;;;;;;2097097;28;20534;-72
2021/12/13 05:04:37;;;;;;;33.20;21.33;;;4.60;99.90;;;;;;2097240;28;20031;-73
2021/12/13 05:05:38;;;;;;;30.42;20.67;;;4.60;99.90;;;;;;2097052;28;20112;-73
2021/12/13 05:06:41;;;;;;;30.98;20.45;;;4.60;99.90;;;;;;2096888;28;20021;-72
2021/12/13 05:07:44;;;;;;;30.52;20.63;;;4.60;99.90;;;;;;2096751;28;20195;-73
2021/12/13 05:08:48;;;;;;;31.15;20.38;;;4.60;99.90;;;;;;2097067;28;20032;-73
2021/12/13 05:09:49;;;;;;;34.70;22.17;;;4.60;99.90;;;;;;2097089;28;20745;-73
2021/12/13 05:10:51;;;;;;;34.38;21.55;;;4.60;99.90;;;;;;2097054;28;20031;-72
2021/12/13 05:12:02;;;;;;;33.00;21.38;;;4.60;99.90;;;;;;2092304;28;20142;-73
2021/12/13 05:13:14;;;;;;;33.65;22.17;;;4.60;99.90;;;;;;2097149;28;20074;-73
2021/12/13 05:14:16;;;;;;;34.92;23.17;;;4.60;99.90;;;;;;2096992;28;20147;-73
2021/12/13 05:15:25;;;;;;;36.90;23.05;;;4.60;99.90;;;;;;2097119;28;20078;-73
2021/12/13 05:16:39;;;;;;;33.05;21.98;;;4.60;99.90;;;;;;2096515;28;20028;-73
2021/12/13 05:17:44;;;;;;;35.40;22.38;;;4.60;99.90;;;;;;2094627;28;20099;-73
2021/12/13 05:18:49;;;;;;;33.83;22.25;;;4.60;99.90;;;;;;2096967;28;20025;-73
2021/12/13 05:20:06;;;;;;;34.03;22.00;;;4.60;99.90;;;;;;2096343;28;20800;-74
2021/12/13 05:21:15;;;;;;;32.35;21.70;;;4.60;99.90;;;;;;2096282;28;20474;-73
2021/12/13 05:22:17;;;;;;;32.67;21.70;;;4.60;99.90;;;;;;2097010;28;20112;-74
2021/12/13 05:23:21;;;;;;;35.08;23.10;;;4.50;99.90;;;;;;2096613;28;20021;-74
2021/12/13 05:24:26;;;;;;;33.92;22.38;;;4.50;99.90;;;;;;2096177;28;20082;-74
2021/12/13 05:25:45;;;;;;;34.33;21.83;;;4.50;99.90;;;;;;2096677;28;20040;-73
2021/12/13 05:27:00;;;;;;;34.88;22.05;;;4.50;99.90;;;;;;2091699;28;20064;-73
2021/12/13 05:28:10;;;;;;;33.80;22.00;;;4.50;99.90;;;;;;2096682;28;20028;-73
2021/12/13 05:29:24;;;;;;;33.63;21.73;;;4.50;99.90;;;;;;2097019;28;20037;-73
2021/12/13 05:30:26;;;;;;;34.33;22.25;;;4.50;99.90;;;;;;2088181;28;20029;-73
2021/12/13 05:31:28;;;;;;;32.15;21.90;;;4.50;99.90;;;;;;2079879;28;20021;-72
2021/12/13 05:32:37;;;;;;;33.47;22.70;;;4.50;99.90;;;;;;2095997;28;20036;-72
2021/12/13 05:33:40;;;;;;;34.35;22.70;;;4.50;99.90;;;;;;2096479;28;20028;-72
2021/12/13 05:34:45;;;;;;;34.28;23.38;;;4.50;99.90;;;;;;2095929;28;20111;-72
2021/12/13 05:35:52;;;;;;;35.42;24.13;;;4.50;99.90;;;;;;2096314;28;20024;-72
2021/12/13 05:36:56;;;;;;;37.25;24.90;;;4.50;99.90;;;;;;2097127;28;20027;-72
2021/12/13 05:38:03;;;;;;;41.58;26.38;;;4.50;99.90;;;;;;2096910;28;20068;-72
2021/12/13 05:39:11;;;;;;;39.83;25.92;;;4.50;99.90;;;;;;2096654;28;20028;-72
2021/12/13 05:40:17;;;;;;;40.08;25.35;;;4.50;99.90;;;;;;2097007;28;20163;-72
2021/12/13 05:41:25;;;;;;;41.42;25.70;;;4.40;99.90;;;;;;2096914;28;20969;-72
2021/12/13 05:42:55;;;;;;;38.50;24.45;;;4.40;99.90;;;;;;2097073;28;20206;-72
2021/12/13 05:43:59;;;;;;;35.75;23.20;;;4.50;99.90;;;;;;2096852;28;20416;-72
2021/12/13 05:45:00;;;;;;;36.80;23.10;;;4.40;99.90;;;;;;2096925;28;20056;-72
2021/12/13 05:46:04;;;;;;;34.60;22.77;;;4.40;99.90;;;;;;2096973;28;20090;-72
2021/12/13 05:47:15;;;;;;;35.53;22.75;;;4.40;99.90;;;;;;2095815;28;20699;-72
2021/12/13 05:48:19;;;;;;;35.25;23.00;;;4.50;99.90;;;;;;2095800;28;20138;-72
2021/12/13 05:49:24;;;;;;;34.55;21.52;;;4.40;99.90;;;;;;2096254;28;20116;-72
2021/12/13 05:50:33;;;;;;;32.42;21.67;;;4.40;99.90;;;;;;2096343;28;20427;-72
2021/12/13 05:51:40;;;;;;;33.13;22.00;;;4.40;99.90;;;;;;2096996;28;20029;-72
2021/12/13 05:52:41;;;;;;;34.17;22.35;;;4.40;99.90;;;;;;2097065;28;20029;-72
2021/12/13 05:53:51;;;;;;;35.22;22.65;;;4.50;99.90;;;;;;2096461;28;20385;-72
2021/12/13 05:54:59;;;;;;;35.65;22.77;;;4.50;99.90;;;;;;2096806;28;20029;-72
2021/12/13 05:56:07;;;;;;;37.05;23.42;;;4.50;99.90;;;;;;2097002;28;20075;-72
2021/12/13 05:57:21;;;;;;;34.88;22.85;;;4.50;99.90;;;;;;2097228;28;20028;-72
2021/12/13 05:58:48;;;;;;;35.03;22.60;;;4.50;99.90;;;;;;2096917;28;20040;-72
2021/12/13 06:00:14;;;;;;;35.78;22.67;;;4.50;99.90;;;;;;2097048;28;20507;-72
2021/12/13 06:01:16;;;;;;;35.92;22.42;;;4.50;99.90;;;;;;2096228;28;20032;-73
2021/12/13 06:02:39;;;;;;;36.05;23.63;;;4.50;99.90;;;;;;2095987;28;20655;-73
2021/12/13 06:03:46;;;;;;;34.05;22.25;;;4.50;99.90;;;;;;2096213;28;20025;-73
2021/12/13 06:05:03;;;;;;;36.20;23.13;;;4.50;99.90;;;;;;2096351;28;20037;-73
2021/12/13 06:06:11;;;;;;;33.63;22.77;;;4.50;99.90;;;;;;2097424;28;20021;-73